Time;durP1;ratioP1;P1;durP2;ratioP2;P2;SDS_P1;SDS_P2;PMS_P1;PMS_P2;Temp;Humidity;BMP_temperature;BMP_pressure;BME280_temperature;BME280_humidity;BME280_pressure;Samples;Min_cycle;Max_cycle;Signal;HPM_P1;HPM_P2
2022/05/17 00:01:52;;;;;;;;;8.00;7.33;;;;;22.43;54.25;101108.97;4887516;29;45571;-85
2022/05/17 00:04:19;;;;;;;;;7.00;7.00;;;;;22.45;54.02;101112.50;4887524;29;45463;-85
2022/05/17 00:06:47;;;;;;;;;9.33;7.67;;;;;22.42;54.73;101108.06;4885520;29;45377;-85
2022/05/17 00:09:12;;;;;;;;;9.67;8.33;;;;;22.38;54.39;101109.09;4869710;29;47817;-85
2022/05/17 00:11:38;;;;;;;;;9.00;8.00;;;;;22.32;53.66;101112.88;4869315;29;45424;-85
2022/05/17 00:14:04;;;;;;;;;7.67;7.00;;;;;22.35;54.67;101117.31;4887254;29;45851;-85
2022/05/17 00:16:30;;;;;;;;;7.67;7.67;;;;;22.33;54.59;101111.03;4870215;29;45458;-84
2022/05/17 00:18:57;;;;;;;;;9.00;8.67;;;;;22.28;55.61;101103.06;4885452;29;47216;-84
2022/05/17 00:21:23;;;;;;;;;6.67;6.67;;;;;22.26;56.08;101104.00;4886674;29;45386;-85
2022/05/17 00:23:49;;;;;;;;;10.00;8.00;;;;;22.20;55.40;101099.66;4868736;29;45846;-84
2022/05/17 00:26:14;;;;;;;;;8.33;7.00;;;;;22.14;55.87;101097.09;4870403;29;45405;-84
2022/05/17 00:28:42;;;;;;;;;10.67;7.67;;;;;22.13;57.42;101096.19;4869756;29;47776;-84
2022/05/17 00:31:09;;;;;;;;;8.00;7.00;;;;;22.13;56.48;101090.78;4869769;29;45766;-84
2022/05/17 00:33:35;;;;;;;;;9.33;6.33;;;;;22.06;57.60;101093.72;4868789;29;45481;-84
2022/05/17 00:36:01;;;;;;;;;6.33;6.00;;;;;22.03;56.88;101088.38;4869423;29;45551;-84
2022/05/17 00:38:27;;;;;;;;;4.33;4.00;;;;;22.05;58.02;101092.81;4886838;29;45224;-84
2022/05/17 00:40:53;;;;;;;;;6.00;6.00;;;;;21.98;58.67;101099.34;4872338;29;45198;-84
2022/05/17 00:46:36;;;;;;;;;5.00;5.00;;;;;21.97;57.82;101084.03;4891557;29;45447;-83
2022/05/17 00:49:02;;;;;;;;;8.00;8.00;;;;;21.91;58.99;101093.19;4890216;29;47410;-84
2022/05/17 00:51:29;;;;;;;;;9.00;8.00;;;;;21.97;58.16;101092.13;4872869;29;45673;-85
2022/05/17 00:54:03;;;;;;;;;7.33;7.33;;;;;21.95;58.43;101089.47;4873056;29;45521;-84
2022/05/17 00:56:29;;;;;;;;;6.33;5.67;;;;;21.97;58.38;101100.25;4890715;29;46075;-84
2022/05/17 00:58:58;;;;;;;;;6.00;6.00;;;;;21.96;58.52;101087.69;4890544;29;45461;-84
2022/05/17 01:01:31;;;;;;;;;7.33;7.33;;;;;21.92;58.13;101080.56;4891565;29;45406;-85
2022/05/17 01:04:03;;;;;;;;;8.67;8.00;;;;;21.94;58.48;101084.13;4893801;29;45317;-85
2022/05/17 01:06:35;;;;;;;;;7.67;7.00;;;;;21.96;58.80;101093.97;4894005;29;45430;-84
2022/05/17 01:09:01;;;;;;;;;7.00;7.00;;;;;21.88;58.54;101085.16;4894327;29;45505;-84
2022/05/17 01:11:26;;;;;;;;;7.33;7.33;;;;;21.89;58.02;101091.47;4894999;29;45402;-85
2022/05/17 01:16:36;;;;;;;;;7.67;7.00;;;;;21.83;57.99;101081.69;4892343;29;45456;-85
2022/05/17 01:19:04;;;;;;;;;5.00;5.00;;;;;21.89;57.89;101086.06;4890272;29;45519;-85
2022/05/17 01:21:32;;;;;;;;;9.67;8.00;;;;;21.84;58.40;101082.59;4889404;29;45527;-85
2022/05/17 01:23:57;;;;;;;;;7.67;7.00;;;;;21.83;57.69;101081.69;4890148;29;45529;-84
2022/05/17 01:26:26;;;;;;;;;6.00;6.00;;;;;21.84;57.86;101082.59;4893192;29;45477;-85
2022/05/17 01:28:51;;;;;;;;;7.00;7.00;;;;;21.75;58.00;101076.50;4875490;29;48481;-85
2022/05/17 01:31:18;;;;;;;;;6.33;6.33;;;;;21.78;58.09;101080.94;4891835;29;45612;-84
2022/05/17 01:33:44;;;;;;;;;6.00;5.67;;;;;21.76;57.25;101085.50;4874672;29;45029;-85
2022/05/17 01:36:12;;;;;;;;;6.33;5.67;;;;;21.72;57.86;101082.00;4892327;29;45538;-85
2022/05/17 01:38:38;;;;;;;;;8.67;7.33;;;;;21.75;58.03;101089.13;4874868;29;45511;-85
2022/05/17 01:41:04;;;;;;;;;7.33;7.33;;;;;21.67;57.57;101070.41;4889381;29;45459;-85
2022/05/17 01:43:30;;;;;;;;;5.67;5.67;;;;;21.69;57.52;101082.09;4890121;29;45409;-85
2022/05/17 01:45:55;;;;;;;;;5.00;4.67;;;;;21.64;57.76;101084.00;4891701;29;45248;-85
2022/05/17 01:48:21;;;;;;;;;6.00;6.00;;;;;21.71;56.97;101099.19;4872667;29;47072;-85
2022/05/17 01:50:46;;;;;;;;;8.00;7.00;;;;;21.67;56.42;101105.59;4888096;29;45662;-85
2022/05/17 01:53:12;;;;;;;;;6.67;5.00;;;;;21.71;55.81;101120.84;4888881;29;45346;-85
2022/05/17 01:55:38;;;;;;;;;6.00;6.00;;;;;21.75;55.45;101116.19;4888136;29;45554;-85
2022/05/17 01:58:05;;;;;;;;;4.33;4.33;;;;;21.70;54.90;101107.31;4886951;29;47272;-86
2022/05/17 02:00:31;;;;;;;;;3.33;3.33;;;;;21.72;54.71;101122.59;4889645;29;45438;-85
2022/05/17 02:02:57;;;;;;;;;5.00;3.00;;;;;21.77;54.40;101123.38;4872259;29;45917;-84
2022/05/17 02:05:24;;;;;;;;;4.00;4.00;;;;;21.76;54.45;101108.03;4888667;29;45424;-84
2022/05/17 02:07:51;;;;;;;;;6.33;6.33;;;;;21.75;54.57;101099.97;4887748;29;45657;-84
2022/05/17 02:10:25;;;;;;;;;5.00;5.00;;;;;21.80;54.70;101125.09;4887100;29;46436;-85
2022/05/17 02:12:53;;;;;;;;;4.33;4.33;;;;;21.73;54.63;101105.44;4888764;29;45422;-85
2022/05/17 02:15:19;;;;;;;;;5.00;5.00;;;;;21.68;54.67;101099.25;4871029;29;45449;-85
2022/05/17 02:17:44;;;;;;;;;3.33;3.33;;;;;21.73;54.66;101118.97;4889002;29;45387;-84
2022/05/17 02:20:12;;;;;;;;;4.33;4.33;;;;;21.80;54.64;101111.56;4889088;29;45531;-84
2022/05/17 02:22:37;;;;;;;;;5.00;5.00;;;;;21.74;54.78;101103.63;4871940;29;45499;-84
2022/05/17 02:25:03;;;;;;;;;4.67;4.00;;;;;21.75;54.97;101108.06;4889809;29;45803;-85
2022/05/17 02:27:29;;;;;;;;;5.33;5.00;;;;;21.72;54.75;101106.34;4889058;29;45405;-85
2022/05/17 02:29:55;;;;;;;;;6.00;5.33;;;;;21.74;54.79;101104.50;4873104;29;45405;-85
2022/05/17 02:32:21;;;;;;;;;4.67;4.00;;;;;21.73;55.54;101102.72;4874966;29;45436;-84
2022/05/17 02:34:47;;;;;;;;;6.33;5.33;;;;;21.56;54.92;101086.91;4874147;29;45814;-84
2022/05/17 02:37:15;;;;;;;;;5.67;5.67;;;;;21.66;55.38;101111.94;4873788;29;46901;-85
2022/05/17 02:39:41;;;;;;;;;4.00;4.00;;;;;21.60;55.60;101101.25;4888211;29;45532;-84
2022/05/17 02:42:07;;;;;;;;;5.67;5.00;;;;;21.53;56.35;101091.50;4888875;29;45382;-84
2022/05/17 02:44:32;;;;;;;;;5.33;4.33;;;;;21.49;55.66;101092.50;4888902;29;45518;-84
2022/05/17 02:46:57;;;;;;;;;3.67;3.67;;;;;21.47;55.65;101092.56;4872224;29;48045;-84
2022/05/17 02:49:23;;;;;;;;;5.00;5.00;;;;;21.51;55.92;101106.91;4873540;29;45429;-84
2022/05/17 02:51:48;;;;;;;;;6.00;6.00;;;;;21.46;56.27;101098.03;4890428;29;45409;-85
2022/05/17 02:54:14;;;;;;;;;8.00;5.33;;;;;21.36;56.59;101087.38;4889501;29;45427;-84
2022/05/17 02:56:39;;;;;;;;;5.00;5.00;;;;;21.38;56.09;101104.47;4872339;29;47099;-84
2022/05/17 02:59:05;;;;;;;;;6.00;6.00;;;;;21.40;56.63;101109.84;4889425;29;45610;-84
2022/05/17 03:01:30;;;;;;;;;7.00;5.67;;;;;21.37;56.57;101096.41;4890043;29;45411;-84
2022/05/17 03:03:56;;;;;;;;;5.33;5.00;;;;;21.38;56.93;101101.75;4888226;29;45310;-85
2022/05/17 03:06:22;;;;;;;;;6.33;5.67;;;;;21.30;57.28;101086.66;4889095;29;47586;-85
2022/05/17 03:08:47;;;;;;;;;5.67;5.33;;;;;21.30;57.54;101092.06;4872543;29;45419;-85
2022/05/17 03:11:13;;;;;;;;;5.33;5.33;;;;;21.26;57.32;101087.66;4887883;29;45703;-84
2022/05/17 03:13:38;;;;;;;;;6.00;6.00;;;;;21.24;57.72;101093.09;4871816;29;45411;-85
2022/05/17 03:16:04;;;;;;;;;5.00;5.00;;;;;21.18;57.97;101086.03;4888456;29;45482;-85
2022/05/17 03:18:30;;;;;;;;;6.33;6.33;;;;;21.14;57.18;101092.44;4890612;29;45446;-84
2022/05/17 03:20:55;;;;;;;;;5.67;4.67;;;;;21.23;57.49;101095.84;4889784;29;45442;-84
2022/05/17 03:23:20;;;;;;;;;4.33;4.33;;;;;21.22;58.04;101097.66;4890373;29;44871;-84
2022/05/17 03:25:46;;;;;;;;;6.00;6.00;;;;;21.06;57.51;101071.91;4874101;28;46932;-85
2022/05/17 03:28:13;;;;;;;;;7.00;6.67;;;;;21.17;57.91;101103.19;4889185;29;45525;-85
2022/05/17 03:30:39;;;;;;;;;5.00;5.00;;;;;21.13;58.44;101103.31;4890209;29;45417;-85
2022/05/17 03:33:05;;;;;;;;;5.67;5.67;;;;;21.07;59.08;101106.16;4871721;29;44784;-85
2022/05/17 03:35:31;;;;;;;;;7.00;7.00;;;;;21.03;58.75;101104.47;4885875;29;47407;-85
2022/05/17 03:37:56;;;;;;;;;4.33;4.33;;;;;20.95;59.07;101097.41;4890796;29;45408;-84
2022/05/17 03:40:22;;;;;;;;;7.00;6.00;;;;;20.93;59.13;101095.66;4889707;29;45426;-85
2022/05/17 03:42:48;;;;;;;;;6.00;6.00;;;;;20.87;59.29;101087.69;4891263;29;45199;-84
2022/05/17 03:45:13;;;;;;;;;5.00;5.00;;;;;20.90;59.01;101098.41;4890523;29;45466;-83
2022/05/17 03:47:40;;;;;;;;;6.00;5.00;;;;;20.93;59.80;101109.19;4890728;29;45425;-84
2022/05/17 03:50:06;;;;;;;;;5.33;5.33;;;;;20.83;59.71;101097.69;4890647;29;45442;-85
2022/05/17 03:52:32;;;;;;;;;5.33;5.33;;;;;20.84;60.51;101112.97;4874733;29;45440;-85
2022/05/17 03:54:59;;;;;;;;;6.33;6.33;;;;;20.85;60.59;101106.66;4888877;29;45723;-85
2022/05/17 03:57:26;;;;;;;;;6.00;5.00;;;;;20.80;61.15;101113.97;4889450;29;45429;-83
2022/05/17 03:59:53;;;;;;;;;9.00;6.00;;;;;20.78;61.03;101110.41;4889119;29;45412;-84
2022/05/17 04:02:19;;;;;;;;;8.00;7.00;;;;;20.75;60.99;101105.06;4872416;29;45562;-85
2022/05/17 04:04:44;;;;;;;;;9.00;7.00;;;;;20.77;60.05;101109.53;4872104;28;45839;-85
2022/05/17 04:07:10;;;;;;;;;6.00;6.00;;;;;20.75;59.73;101099.66;4872131;29;45575;-84
2022/05/17 04:09:35;;;;;;;;;6.00;6.00;;;;;20.80;60.51;101103.16;4891190;29;45559;-84
2022/05/17 04:12:03;;;;;;;;;6.33;6.00;;;;;20.78;60.96;101116.72;4889055;29;44883;-84
2022/05/17 04:14:29;;;;;;;;;8.33;6.67;;;;;20.76;61.22;101121.28;4872475;29;47123;-84
2022/05/17 04:16:54;;;;;;;;;7.00;7.00;;;;;20.71;61.20;101117.75;4889614;29;45469;-84
2022/05/17 04:19:20;;;;;;;;;5.67;5.00;;;;;20.69;60.87;101116.91;4872876;29;44873;-84
2022/05/17 04:21:46;;;;;;;;;6.00;6.00;;;;;20.70;61.15;101118.72;4890383;29;45397;-84
2022/05/17 04:24:11;;;;;;;;;7.33;6.67;;;;;20.66;62.15;101106.16;4873835;29;46913;-84
2022/05/17 04:26:43;;;;;;;;;6.67;6.33;;;;;20.70;62.03;101106.97;4874285;29;44799;-83
2022/05/17 04:29:09;;;;;;;;;7.33;7.00;;;;;20.67;61.71;101124.16;4890455;29;45668;-85
2022/05/17 04:31:36;;;;;;;;;5.00;5.00;;;;;20.58;61.85;101110.81;4891252;29;45722;-85
2022/05/17 04:34:03;;;;;;;;;5.00;5.00;;;;;20.63;61.60;101126.97;4886749;29;45737;-84
2022/05/17 04:36:29;;;;;;;;;4.67;4.67;;;;;20.62;61.14;101128.75;4873459;29;45343;-84
2022/05/17 04:38:54;;;;;;;;;6.00;6.00;;;;;20.61;61.11;101118.88;4893118;29;45506;-84
2022/05/17 04:41:20;;;;;;;;;6.00;6.00;;;;;20.57;61.13;101120.72;4871548;29;44818;-84
2022/05/17 04:43:46;;;;;;;;;5.00;5.00;;;;;20.63;61.08;101125.16;4888864;29;46085;-85
2022/05/17 04:46:12;;;;;;;;;7.00;6.00;;;;;20.72;60.84;101133.06;4888392;29;45903;-84
2022/05/17 04:48:38;;;;;;;;;7.33;7.00;;;;;20.75;60.80;101137.50;4887506;29;45537;-84
2022/05/17 04:51:12;;;;;;;;;8.33;8.33;;;;;20.83;60.71;101130.13;4886134;29;45517;-84
2022/05/17 04:53:41;;;;;;;;;3.33;3.33;;;;;20.84;60.79;101125.59;4886129;29;47876;-84
2022/05/17 04:56:09;;;;;;;;;5.33;5.33;;;;;20.83;60.77;101122.00;4884845;29;45520;-84
2022/05/17 04:58:35;;;;;;;;;7.00;5.33;;;;;20.80;60.39;101116.66;4884774;29;45412;-84
2022/05/17 05:01:02;;;;;;;;;5.00;5.00;;;;;20.96;60.30;101136.13;4887502;29;45490;-84
2022/05/17 05:03:28;;;;;;;;;7.00;6.00;;;;;20.96;60.04;101120.78;4869106;29;47310;-85
2022/05/17 05:05:54;;;;;;;;;7.00;7.00;;;;;21.09;59.77;101137.66;4885512;29;45379;-85
2022/05/17 05:08:19;;;;;;;;;8.67;7.00;;;;;21.24;59.91;101144.50;4888096;29;45303;-85
2022/05/17 05:10:45;;;;;;;;;7.00;7.00;;;;;21.37;59.35;101137.88;4875178;28;45452;-85
2022/05/17 05:13:18;;;;;;;;;9.00;8.00;;;;;21.63;58.78;101155.31;4870662;29;47140;-84
2022/05/17 05:15:44;;;;;;;;;7.00;7.00;;;;;21.77;58.09;101154.94;4887645;29;45368;-84
2022/05/17 05:18:10;;;;;;;;;9.33;8.33;;;;;21.88;57.85;101142.03;4887045;29;45361;-85
2022/05/17 05:20:37;;;;;;;;;5.67;5.33;;;;;22.07;57.25;101149.66;4870489;29;45474;-85
2022/05/17 05:23:03;;;;;;;;;6.33;6.33;;;;;22.23;57.17;101159.16;4887915;29;45693;-85
2022/05/17 05:25:29;;;;;;;;;6.33;6.33;;;;;22.31;56.70;101156.25;4870935;29;45519;-85
2022/05/17 05:27:54;;;;;;;;;5.67;5.67;;;;;22.41;56.13;101155.06;4875144;29;45559;-85
2022/05/17 05:30:20;;;;;;;;;7.33;7.33;;;;;22.57;55.52;101164.53;4874197;29;45528;-85
2022/05/17 05:32:47;;;;;;;;;5.00;5.00;;;;;22.64;54.52;101151.66;4891593;29;45412;-85
2022/05/17 05:35:22;;;;;;;;;7.00;6.33;;;;;22.76;54.13;101162.19;4891452;29;45447;-86
2022/05/17 05:37:55;;;;;;;;;6.00;6.00;;;;;22.89;53.58;101162.69;4889264;29;45829;-85
2022/05/17 05:40:21;;;;;;;;;4.33;4.33;;;;;23.04;53.38;101164.06;4893158;29;45412;-85
2022/05/17 05:42:49;;;;;;;;;6.00;6.00;;;;;23.20;52.71;101169.91;4894039;29;45351;-85
2022/05/17 05:45:14;;;;;;;;;7.00;7.00;;;;;23.36;52.39;101168.47;4891954;29;45442;-85
2022/05/17 05:47:40;;;;;;;;;7.00;7.00;;;;;23.55;51.67;101174.22;4890854;29;45279;-85
2022/05/17 05:50:07;;;;;;;;;5.67;5.67;;;;;23.71;51.31;101173.69;4873424;29;45421;-85
2022/05/17 05:52:34;;;;;;;;;7.00;5.00;;;;;23.80;50.96;101167.97;4891670;29;46876;-85
2022/05/17 05:55:00;;;;;;;;;7.67;7.33;;;;;23.95;50.87;101166.56;4891621;29;45598;-84
2022/05/17 05:57:26;;;;;;;;;8.00;8.00;;;;;24.07;50.83;101171.56;4876192;29;45564;-85
2022/05/17 05:59:52;;;;;;;;;3.67;3.67;;;;;24.05;49.40;101168.00;4891870;29;45478;-86
2022/05/17 06:02:17;;;;;;;;;6.00;6.00;;;;;24.05;49.66;101151.69;4894213;29;45454;-85
2022/05/17 06:04:43;;;;;;;;;7.00;7.00;;;;;24.14;49.30;101173.13;4892556;29;45491;-86
2022/05/17 06:07:08;;;;;;;;;5.33;5.33;;;;;24.13;48.74;101176.78;4877917;29;45369;-86
2022/05/17 06:09:37;;;;;;;;;5.00;5.00;;;;;24.13;48.65;101175.88;4876576;29;45708;-88
2022/05/17 06:12:33;;;;;;;;;6.00;6.00;;;;;24.07;48.43;101177.00;4874821;29;47880;-88
2022/05/17 06:18:24;;;;;;;;;5.00;5.00;;;;;24.10;48.67;101166.03;4872908;29;44826;-86
2022/05/17 06:20:53;;;;;;;;;7.00;6.67;;;;;24.00;48.57;101166.41;4857053;29;45499;-87
2022/05/17 06:23:19;;;;;;;;;8.00;5.33;;;;;23.74;47.69;101136.44;4874879;29;45387;-88
2022/05/17 06:25:45;;;;;;;;;7.33;7.33;;;;;23.91;48.58;101167.59;4858645;29;45109;-88
2022/05/17 06:28:10;;;;;;;;;7.33;6.33;;;;;24.00;48.17;101170.00;4859809;29;45215;-87
2022/05/17 06:30:37;;;;;;;;;7.00;6.00;;;;;23.98;48.33;101161.03;4858807;29;45282;-87
2022/05/17 06:33:06;;;;;;;;;8.00;8.00;;;;;24.24;47.93;101190.00;4859279;29;48048;-87
2022/05/17 06:35:32;;;;;;;;;6.67;5.67;;;;;24.16;48.38;101148.63;4892890;29;45462;-87
2022/05/17 06:37:59;;;;;;;;;6.00;6.00;;;;;24.32;47.65;101143.53;4878975;29;45416;-87
2022/05/17 06:40:25;;;;;;;;;7.33;7.33;;;;;24.48;47.32;101155.59;4893678;29;44903;-86
2022/05/17 06:42:50;;;;;;;;;7.00;7.00;;;;;24.71;46.89;101178.34;4893224;29;47049;-85
2022/05/17 06:45:16;;;;;;;;;6.00;6.00;;;;;24.83;46.40;101177.88;4879547;29;45560;-85
2022/05/17 06:47:42;;;;;;;;;7.33;7.33;;;;;24.93;46.32;101178.41;4880774;29;45409;-84
2022/05/17 06:50:10;;;;;;;;;9.33;8.00;;;;;24.93;45.90;101168.41;4894023;29;45407;-85
2022/05/17 06:52:39;;;;;;;;;8.33;6.33;;;;;24.93;45.62;101162.97;4893199;29;47473;-84
2022/05/17 06:55:11;;;;;;;;;5.00;5.00;;;;;25.06;45.61;101167.91;4893058;29;44881;-84
2022/05/17 06:57:37;;;;;;;;;9.00;9.00;;;;;24.97;45.79;101146.53;4877296;29;45447;-84
2022/05/17 07:00:09;;;;;;;;;6.00;5.33;;;;;25.24;45.18;101167.22;4862880;29;44918;-85
2022/05/17 07:02:35;;;;;;;;;6.33;6.33;;;;;25.18;44.72;101156.53;4881701;29;47052;-85
2022/05/17 07:05:13;;;;;;;;;4.67;4.67;;;;;25.39;44.29;101181.16;4887489;29;45367;-86
2022/05/17 07:07:41;;;;;;;;;4.33;4.33;;;;;25.38;44.75;101184.84;4859865;29;45454;-85
2022/05/17 07:13:08;;;;;;;;;5.67;5.00;;;;;25.43;43.72;101178.28;4903906;29;46274;-84
2022/05/17 07:15:37;;;;;;;;;5.00;5.00;;;;;25.50;43.26;101168.00;4896124;29;44819;-86
2022/05/17 07:18:03;;;;;;;;;6.33;6.00;;;;;25.51;43.43;101167.94;4895815;29;45470;-86
2022/05/17 07:21:12;;;;;;;;;4.00;4.00;;;;;25.69;42.35;101179.91;4893943;29;45427;-86
2022/05/17 07:23:38;;;;;;;;;4.00;4.00;;;;;25.59;42.96;101172.16;4889395;29;47328;-87
2022/05/17 07:26:09;;;;;;;;;5.33;5.33;;;;;25.55;42.99;101147.81;4897176;29;45459;-86
2022/05/17 07:31:50;;;;;;;;;5.33;5.33;;;;;25.74;42.34;101182.44;4901476;29;45460;-85
2022/05/17 07:41:31;;;;;;;;;5.67;5.67;;;;;26.07;41.96;101180.13;4858150;29;44967;-85
2022/05/17 07:44:27;;;;;;;;;6.00;6.00;;;;;26.06;42.12;101151.09;4854489;29;45190;-86
2022/05/17 07:50:23;;;;;;;;;8.33;8.33;;;;;26.03;41.88;101159.41;4807209;29;45615;-84
2022/05/17 07:53:31;;;;;;;;;;;;;;;;;;;;;
2022/05/17 07:56:28;;;;;;;;;7.00;7.00;;;;;26.41;41.18;101172.28;4852605;29;66398;-84
2022/05/17 08:02:59;;;;;;;;;;;;;;;;;;;;;
2022/05/17 08:13:08;;;;;;;;;6.33;6.33;;;;;26.61;37.88;101176.88;4786595;29;45767;-85
2022/05/17 08:19:50;;;;;;;;;7.00;5.67;;;;;26.82;38.05;101184.03;4819890;29;45520;-84
2022/05/17 08:22:50;;;;;;;;;5.00;5.00;;;;;26.75;37.20;101171.66;4828761;29;45590;-85
2022/05/17 08:28:59;;;;;;;;;;;;;;;;;;;;;
2022/05/17 08:35:45;;;;;;;;;5.00;5.00;;;;;27.04;35.67;101178.44;5543437;23;46454;-85
2022/05/17 08:41:28;;;;;;;;;6.00;6.00;;;;;27.01;34.53;101186.81;4812005;29;44878;-84
2022/05/17 08:44:47;;;;;;;;;4.33;4.33;;;;;27.00;34.17;101173.22;4835283;29;45022;-86
2022/05/17 08:50:49;;;;;;;;;6.33;6.33;;;;;26.97;35.84;101157.88;4838971;29;44920;-84
2022/05/17 08:53:23;;;;;;;;;6.00;6.00;;;;;27.09;35.70;101170.06;4824660;29;45369;-85
2022/05/17 08:56:48;;;;;;;;;5.00;5.00;;;;;27.12;35.41;101162.59;4842076;29;44952;-85
2022/05/17 09:00:23;;;;;;;;;5.00;5.00;;;;;27.12;34.79;101168.03;4839609;29;44983;-86
2022/05/17 09:19:45;;;;;;;;;2.00;2.00;;;;;27.04;33.13;101123.84;1153030;27;47111;-86
2022/05/17 09:22:35;;;;;;;;;3.00;3.00;;;;;27.24;34.26;101155.69;4830151;29;45573;-85
2022/05/17 09:25:13;;;;;;;;;6.33;2.67;;;;;27.03;34.42;101115.75;4833962;29;45410;-84
2022/05/17 09:27:39;;;;;;;;;4.67;4.67;;;;;27.08;34.21;101109.09;4827096;29;45638;-85
2022/05/17 09:30:11;;;;;;;;;6.00;5.33;;;;;27.41;35.00;101148.50;4833266;29;45524;-84
2022/05/17 09:32:47;;;;;;;;;3.33;3.33;;;;;27.54;34.09;101145.06;4817778;29;45067;-84
2022/05/17 09:35:20;;;;;;;;;4.00;4.00;;;;;27.48;34.17;101130.84;4823031;29;47023;-85
2022/05/17 09:37:59;;;;;;;;;5.67;3.33;;;;;27.60;33.49;101143.88;4843668;29;45321;-86
2022/05/17 09:40:33;;;;;;;;;1.33;1.33;;;;;27.50;33.41;101118.88;4808755;29;46627;-84
2022/05/17 09:43:08;;;;;;;;;1.33;1.33;;;;;27.53;32.18;101136.94;4832252;29;44947;-84
2022/05/17 09:45:55;;;;;;;;;1.00;1.00;;;;;27.55;31.68;101143.22;4837173;29;45708;-85
2022/05/17 09:52:55;;;;;;;;;;;;;;;;;;;;;
2022/05/17 09:55:08;;;;;;;;;3.00;3.00;;;;;27.21;32.61;101087.53;4825588;29;45283;-85
2022/05/17 09:57:34;;;;;;;;;5.67;5.67;;;;;27.31;33.32;101107.13;4855786;29;46761;-83
2022/05/17 10:00:13;;;;;;;;;2.67;2.67;;;;;27.58;33.22;101137.63;4854767;29;45395;-86
2022/05/17 10:02:49;;;;;;;;;3.00;3.00;;;;;27.51;32.93;101125.22;4852643;29;45435;-86
2022/05/17 10:05:23;;;;;;;;;0.50;0.50;;;;;27.56;33.05;101131.34;4840757;29;45369;-86
2022/05/17 10:07:58;;;;;;;;;5.00;3.67;;;;;27.42;33.08;101104.72;4859051;29;45502;-84
2022/05/17 10:10:30;;;;;;;;;5.00;5.00;;;;;27.56;33.15;101130.47;4837689;29;45240;-85
2022/05/17 10:13:11;;;;;;;;;6.00;5.67;;;;;27.63;33.11;101123.72;4850071;29;44979;-85
2022/05/17 10:15:41;;;;;;;;;6.00;6.00;;;;;27.60;33.49;101097.44;4841563;29;45403;-85
2022/05/17 10:18:47;;;;;;;;;0.25;0.25;;;;;27.81;31.75;101122.75;4822860;29;45295;-85
2022/05/17 10:21:37;;;;;;;;;3.33;2.33;;;;;27.52;32.43;101084.16;4863805;29;45189;-86
2022/05/17 10:24:30;;;;;;;;;2.50;1.00;;;;;27.76;32.45;101113.94;4855138;29;45592;-84
2022/05/17 10:27:16;;;;;;;;;1.00;1.00;;;;;27.82;31.63;101110.00;4880258;29;44863;-85
2022/05/17 10:30:16;;;;;;;;;1.00;0.67;;;;;27.63;30.92;101067.22;4861524;29;45571;-85
2022/05/17 10:36:17;;;;;;;;;0.25;0.25;;;;;28.01;30.21;101101.72;4876918;29;44875;-86
2022/05/17 10:43:39;;;;;;;;;;;;;;;;;;;;;
2022/05/17 10:50:11;;;;;;;;;3.67;3.00;;;;;28.18;31.18;101082.56;4756706;29;45371;-87
2022/05/17 10:53:15;;;;;;;;;2.67;2.00;;;;;28.16;30.53;101080.88;4751055;29;45617;-87
2022/05/17 10:56:10;;;;;;;;;4.33;2.67;;;;;28.09;31.78;101075.72;4751070;29;45656;-87
2022/05/17 10:59:25;;;;;;;;;3.00;2.67;;;;;28.12;31.54;101081.06;4675216;30;45900;-87
2022/05/17 11:02:45;;;;;;;;;2.33;2.33;;;;;28.12;30.52;101075.59;4687696;30;44823;-88
2022/05/17 11:19:33;;;;;;;;;;;;;;;;;;;;;
2022/05/17 11:22:42;;;;;;;;;3.00;2.67;;;;;28.39;31.39;101055.88;4670886;30;45069;-85
2022/05/17 11:25:40;;;;;;;;;;;;;;;;;;;;;
2022/05/17 11:28:36;;;;;;;;;2.67;2.67;;;;;28.67;30.95;101048.91;4695022;30;45041;-85
2022/05/17 12:19:11;;;;;;;;;6.67;5.00;;;;;29.40;29.65;100982.59;3969906;23;45935;-84
2022/05/17 12:22:27;;;;;;;;;5.33;4.00;;;;;29.23;29.76;100956.22;4784613;29;45469;-85
2022/05/17 12:48:52;;;;;;;;;5.00;4.33;;;;;29.79;30.96;100964.66;4760032;29;46289;-87
2022/05/17 12:51:42;;;;;;;;;5.67;4.33;;;;;29.88;30.42;100922.97;4760426;29;45427;-87
2022/05/17 12:54:17;;;;;;;;;6.67;6.00;;;;;30.17;30.33;100961.34;4749494;29;45555;-86
2022/05/17 12:57:54;;;;;;;;;;;;;;;;;;;;;
2022/05/17 13:00:29;;;;;;;;;5.00;5.00;;;;;30.11;31.06;100952.50;4686214;30;68293;-87
2022/05/17 13:06:08;;;;;;;;;4.00;4.00;;;;;30.32;30.58;100919.22;5022569;23;45644;-85
2022/05/17 13:09:03;;;;;;;;;3.00;3.00;;;;;30.28;30.42;100917.63;4858141;29;45462;-86
2022/05/17 13:12:19;;;;;;;;;3.33;3.33;;;;;30.33;29.89;100951.16;4846280;29;45377;-85
2022/05/17 13:15:10;;;;;;;;;6.00;4.33;;;;;30.11;29.89;100949.78;4793963;29;45716;-86
2022/05/17 13:17:57;;;;;;;;;3.67;2.67;;;;;29.90;30.23;100937.47;4807114;29;45983;-87
2022/05/17 13:20:31;;;;;;;;;8.00;5.00;;;;;29.82;30.45;100926.09;4804363;29;44765;-86
2022/05/17 13:23:46;;;;;;;;;3.00;3.00;;;;;29.90;30.78;100941.06;4819254;29;45573;-87
2022/05/17 13:30:31;;;;;;;;;7.00;5.67;;;;;30.18;32.07;100935.66;4819151;29;46044;-86
2022/05/17 13:33:20;;;;;;;;;6.00;6.00;;;;;30.16;31.57;100904.69;4805388;29;44898;-86
2022/05/17 13:43:43;;;;;;;;;;;;;;;;;;;;;
2022/05/17 13:46:18;;;;;;;;;5.00;5.00;;;;;31.60;30.47;100922.38;4759559;29;72954;-87
2022/05/17 13:53:15;;;;;;;;;;;;;;;;;;;;;
2022/05/17 14:00:19;;;;;;;;;5.00;5.00;;;;;39.27;21.80;100893.97;4648630;30;46050;-86
2022/05/17 14:03:05;;;;;;;;;;;;;;;;;;;;;
2022/05/17 14:05:54;;;;;;;;;6.67;5.67;;;;;40.86;21.99;100883.28;4643952;30;64708;-85
2022/05/17 14:12:23;;;;;;;;;;;;;;;;;;;;;
2022/05/17 14:15:16;;;;;;;;;3.00;3.00;;;;;43.86;20.51;100910.16;4664028;30;68029;-85
2022/05/17 14:20:28;;;;;;;;;5.00;5.00;;;;;46.15;17.91;100903.88;4713601;30;45305;-85
2022/05/17 14:23:23;;;;;;;;;1.00;1.00;;;;;45.55;15.98;100909.06;4703878;30;45491;-86
2022/05/17 14:26:14;;;;;;;;;4.00;4.00;;;;;45.80;17.21;100903.91;4700368;30;44913;-85
2022/05/17 14:29:06;;;;;;;;;3.67;3.67;;;;;44.27;17.22;100909.66;4715423;30;45474;-85
2022/05/17 14:34:54;;;;;;;;;;;;;;;;;;;;;
2022/05/17 14:37:20;;;;;;;;;5.00;5.00;;;;;47.43;16.90;100873.00;4711986;30;68022;-87
2022/05/17 14:39:56;;;;;;;;;5.00;4.00;;;;;48.58;15.86;100893.06;4696245;30;44835;-85
2022/05/17 14:42:22;;;;;;;;;4.33;3.33;;;;;49.30;15.51;100881.47;4707151;30;45412;-85
2022/05/17 14:45:00;;;;;;;;;6.67;4.67;;;;;49.44;13.82;100891.56;4711951;30;45400;-87
2022/05/17 14:51:04;;;;;;;;;2.00;2.00;;;;;48.96;13.92;100869.56;4712576;30;44807;-86
2022/05/17 14:53:30;;;;;;;;;4.00;4.00;;;;;49.05;14.96;100854.09;4711140;30;45420;-86
2022/05/17 14:55:57;;;;;;;;;2.00;2.00;;;;;50.03;14.57;100888.34;4695872;30;45394;-86
2022/05/17 14:58:26;;;;;;;;;5.33;5.33;;;;;50.29;14.21;100886.31;4739024;29;45857;-85
2022/05/17 15:04:18;;;;;;;;;5.00;5.00;;;;;48.86;14.31;100866.38;4762674;29;45491;-85
2022/05/17 15:07:02;;;;;;;;;5.33;5.33;;;;;46.69;15.21;100867.28;4758922;29;45451;-85
2022/05/17 15:09:34;;;;;;;;;5.00;4.67;;;;;47.77;15.61;100856.91;4857177;29;44813;-85
2022/05/17 15:12:03;;;;;;;;;8.00;8.00;;;;;49.60;14.45;100864.69;4852760;29;45492;-87
2022/05/17 15:15:18;;;;;;;;;3.00;3.00;;;;;51.28;13.67;100832.09;4856161;29;45824;-86
2022/05/17 15:17:32;;;;;;;;;4.00;4.00;;;;;52.18;12.85;100836.41;4834328;29;45553;-87
2022/05/17 15:20:05;;;;;;;;;4.00;4.00;;;;;51.64;13.03;100859.31;4843020;29;44785;-86
2022/05/17 15:23:13;;;;;;;;;5.00;5.00;;;;;49.56;13.34;100845.59;4849537;29;45430;-85
2022/05/17 15:26:19;;;;;;;;;;;;;;;;;;;;;
2022/05/17 15:28:50;;;;;;;;;3.67;3.67;;;;;48.42;14.10;100842.78;4853280;29;72831;-87
2022/05/17 15:31:30;;;;;;;;;4.33;4.33;;;;;49.38;14.09;100799.25;4845454;29;45534;-87
2022/05/17 15:34:06;;;;;;;;;3.33;3.33;;;;;51.47;12.74;100818.66;4836343;29;44812;-87
2022/05/17 15:36:33;;;;;;;;;4.67;4.67;;;;;52.91;10.81;100814.81;4843382;29;45545;-87
2022/05/17 15:39:05;;;;;;;;;4.00;4.00;;;;;53.65;11.64;100819.34;4854961;29;45414;-86
2022/05/17 15:41:38;;;;;;;;;8.00;6.00;;;;;54.03;11.64;100817.59;4855881;29;45493;-88
2022/05/17 15:44:14;;;;;;;;;;;;;;;;;;;;;
2022/05/17 15:53:28;;;;;;;;;3.33;3.33;;;;;54.31;10.62;100788.03;4850508;29;44748;-88
2022/05/17 15:56:09;;;;;;;;;4.33;4.33;;;;;54.84;10.59;100799.66;4854746;29;45575;-87